createdAt,value
2022-08-11T00:00:13.831Z,6.19
2022-08-11T00:01:21.967Z,6.26
2022-08-11T00:02:30.029Z,6.58
2022-08-11T00:03:42.546Z,6.02
2022-08-11T00:04:41.664Z,6.21
2022-08-11T00:05:52.613Z,6.24
2022-08-11T00:06:58.263Z,6.28
2022-08-11T00:08:02.524Z,6.09
2022-08-11T00:09:09.819Z,6.31
2022-08-11T00:10:19.118Z,6.01
2022-08-11T00:12:44.390Z,5.79
2022-08-11T00:13:50.966Z,6.16
2022-08-11T00:15:02.060Z,5.72
2022-08-11T00:16:18.671Z,5.71
2022-08-11T00:17:25.890Z,6.11
2022-08-11T00:18:34.025Z,5.96
2022-08-11T00:20:14.428Z,6.24
2022-08-11T00:20:53.203Z,6.18
2022-08-11T00:22:04.762Z,5.76
2022-08-11T00:23:11.770Z,6.17
2022-08-11T00:24:17.206Z,5.73
2022-08-11T00:25:23.275Z,6.16
2022-08-11T00:26:28.982Z,5.68
2022-08-11T00:27:36.320Z,5.59
2022-08-11T00:28:40.306Z,5.89
2022-08-11T00:29:56.278Z,5.70
2022-08-11T00:32:20.132Z,5.66
2022-08-11T00:33:41.334Z,5.47
2022-08-11T00:34:34.937Z,5.61
2022-08-11T00:35:51.366Z,5.94
2022-08-11T00:38:19.349Z,6.19
2022-08-11T00:39:28.467Z,5.36
2022-08-11T00:40:40.058Z,5.81
2022-08-11T00:42:06.534Z,5.54
2022-08-11T00:43:23.843Z,5.44
2022-08-11T00:44:31.404Z,5.15
2022-08-11T00:45:44.429Z,5.69
2022-08-11T00:47:06.573Z,5.49
2022-08-11T00:48:45.634Z,5.81
2022-08-11T00:51:59.802Z,5.79
2022-08-11T00:53:33.753Z,6.02
2022-08-11T00:54:41.296Z,5.47
2022-08-11T00:56:05.465Z,5.44
2022-08-11T00:57:37.064Z,5.33
2022-08-11T00:58:48.285Z,5.74
2022-08-11T01:00:16.660Z,5.35
2022-08-11T01:01:28.845Z,6.02
2022-08-11T01:02:58.005Z,5.73
2022-08-11T01:04:23.769Z,5.58
2022-08-11T01:06:03.069Z,5.43
2022-08-11T01:08:02.332Z,6.02
2022-08-11T01:08:42.453Z,5.56
2022-08-11T01:09:55.908Z,5.53
2022-08-11T01:11:26.934Z,5.52
2022-08-11T01:12:47.689Z,5.65
2022-08-11T01:14:11.561Z,5.46
2022-08-11T01:15:41.457Z,5.61
2022-08-11T01:16:55.974Z,5.88
2022-08-11T01:18:19.107Z,6.02
2022-08-11T01:20:45.323Z,5.89
2022-08-11T01:21:20.286Z,5.89
2022-08-11T01:22:30.984Z,5.87
2022-08-11T01:24:11.918Z,5.39
2022-08-11T01:26:42.515Z,5.29
2022-08-11T01:28:25.607Z,5.40
2022-08-11T01:29:49.638Z,6.04
2022-08-11T01:31:14.961Z,5.62
2022-08-11T01:32:47.819Z,5.52
2022-08-11T01:34:13.756Z,5.54
2022-08-11T01:35:32.751Z,5.57
2022-08-11T01:36:56.688Z,5.81
2022-08-11T01:38:29.424Z,5.53
2022-08-11T01:40:02.994Z,5.14
2022-08-11T01:41:29.624Z,5.15
2022-08-11T01:43:09.705Z,5.33
2022-08-11T01:44:56.251Z,4.93
2022-08-11T01:46:17.842Z,5.09
2022-08-11T01:47:52.638Z,5.73
2022-08-11T01:50:05.974Z,5.49
2022-08-11T01:51:16.970Z,5.19
2022-08-11T01:52:34.900Z,5.23
2022-08-11T01:54:05.415Z,5.73
2022-08-11T01:55:22.789Z,5.53
2022-08-11T02:21:22.641Z,5.26
2022-08-11T02:22:52.250Z,5.37
2022-08-11T02:24:05.183Z,5.09
2022-08-11T02:25:11.363Z,5.27
2022-08-11T02:26:32.883Z,5.46
2022-08-11T02:27:46.144Z,5.14
2022-08-11T02:29:22.549Z,5.53
2022-08-11T02:30:28.479Z,5.61
2022-08-11T02:32:24.671Z,5.43
2022-08-11T02:33:26.484Z,5.54
2022-08-11T02:34:59.963Z,5.16
2022-08-11T02:36:21.938Z,5.00
2022-08-11T02:37:43.275Z,5.37
2022-08-11T02:38:59.208Z,5.56
2022-08-11T02:40:24.464Z,5.65
2022-08-11T02:42:04.079Z,4.88
2022-08-11T02:43:14.654Z,5.67
2022-08-11T02:44:28.683Z,5.37
2022-08-11T02:45:59.949Z,5.46
2022-08-11T02:47:18.503Z,5.44
2022-08-11T02:49:12.376Z,5.65
2022-08-11T02:50:25.909Z,5.17
2022-08-11T02:51:46.127Z,5.22
2022-08-11T02:52:53.545Z,5.42
2022-08-11T02:54:22.144Z,5.46
2022-08-11T02:55:57.304Z,5.60
2022-08-11T02:57:21.990Z,5.29
2022-08-11T02:59:16.915Z,5.60
2022-08-11T03:00:24.806Z,5.69
2022-08-11T03:01:32.956Z,5.57
2022-08-11T03:02:57.326Z,6.11
2022-08-11T03:04:11.450Z,5.88
2022-08-11T03:05:37.249Z,5.56
2022-08-11T03:06:59.607Z,6.09
2022-08-11T03:08:22.183Z,5.55
2022-08-11T03:09:39.952Z,5.44
2022-08-11T03:11:30.121Z,5.88
2022-08-11T03:12:55.780Z,5.73
2022-08-11T03:14:31.169Z,6.35
2022-08-11T03:16:16.650Z,5.89
2022-08-11T03:17:44.717Z,5.68
2022-08-11T03:18:58.072Z,5.39
2022-08-11T03:20:22.112Z,6.15
2022-08-11T03:22:02.996Z,6.01
2022-08-11T03:23:04.376Z,6.02
2022-08-11T03:24:19.496Z,5.84
2022-08-11T03:25:33.033Z,5.61
2022-08-11T03:26:40.606Z,5.87
2022-08-11T03:27:56.752Z,5.77
2022-08-11T03:29:25.132Z,5.97
2022-08-11T03:30:51.463Z,6.40
2022-08-11T03:32:03.639Z,6.41
2022-08-11T03:33:39.563Z,5.86
2022-08-11T03:34:50.855Z,7.15
2022-08-11T03:36:10.161Z,6.29
2022-08-11T03:39:15.577Z,6.43
2022-08-11T03:40:47.475Z,6.56
2022-08-11T03:42:07.644Z,6.74
2022-08-11T03:43:35.079Z,6.16
2022-08-11T03:44:44.328Z,6.06
2022-08-11T03:45:59.645Z,6.93
2022-08-11T03:47:19.643Z,7.13
2022-08-11T03:48:32.257Z,6.42
2022-08-11T03:51:25.088Z,6.82
2022-08-11T03:52:48.917Z,6.83
2022-08-11T03:54:17.853Z,6.70
2022-08-11T03:56:00.147Z,6.67
2022-08-11T03:57:34.073Z,6.33
2022-08-11T03:59:08.584Z,7.33
2022-08-11T04:00:31.635Z,7.28
2022-08-11T04:01:56.922Z,6.74
2022-08-11T04:03:31.769Z,6.86
2022-08-11T04:05:17.700Z,6.68
2022-08-11T04:06:38.286Z,6.93
2022-08-11T04:07:55.337Z,6.26
2022-08-11T04:09:41.301Z,6.72
2022-08-11T04:10:51.200Z,6.95
2022-08-11T04:12:14.783Z,6.79
2022-08-11T04:13:55.139Z,7.22
2022-08-11T04:15:22.472Z,6.73
2022-08-11T04:16:39.226Z,6.96
2022-08-11T04:17:48.541Z,7.13
2022-08-11T04:19:01.277Z,7.78
2022-08-11T04:20:27.444Z,7.38
2022-08-11T04:21:52.120Z,7.28
2022-08-11T04:24:36.589Z,7.49
2022-08-11T04:24:54.001Z,7.27
2022-08-11T04:26:18.514Z,7.52
2022-08-11T04:27:36.860Z,7.52
2022-08-11T04:28:50.199Z,7.01
2022-08-11T04:30:01.907Z,8.24
2022-08-11T04:31:06.391Z,7.19
2022-08-11T04:32:24.508Z,7.56
2022-08-11T04:33:46.273Z,7.31
2022-08-11T04:35:10.844Z,7.83
2022-08-11T04:36:26.143Z,7.34
2022-08-11T04:37:53.603Z,7.67
2022-08-11T04:39:07.954Z,7.14
2022-08-11T04:40:33.807Z,7.76
2022-08-11T04:42:18.909Z,7.59
2022-08-11T04:44:06.235Z,7.40
2022-08-11T04:45:12.815Z,7.24
2022-08-11T04:46:46.733Z,7.17
2022-08-11T04:50:29.089Z,8.09
2022-08-11T04:52:16.529Z,6.87
2022-08-11T04:53:52.263Z,7.45
2022-08-11T04:55:46.923Z,6.86
2022-08-11T04:57:14.266Z,7.11
2022-08-11T04:58:58.517Z,6.96
2022-08-11T05:00:26.864Z,6.96
2022-08-11T05:01:42.906Z,6.81
2022-08-11T05:03:15.830Z,7.28
2022-08-11T05:05:01.548Z,7.29
2022-08-11T05:06:26.012Z,7.18
2022-08-11T05:08:07.382Z,7.23
2022-08-11T05:09:26.601Z,6.96
2022-08-11T05:11:06.180Z,7.46
2022-08-11T05:12:47.136Z,7.01
2022-08-11T05:14:15.020Z,7.10
2022-08-11T05:15:51.362Z,7.17
2022-08-11T05:17:16.135Z,7.17
2022-08-11T05:18:42.171Z,6.98
2022-08-11T05:20:06.984Z,7.28
2022-08-11T05:21:45.055Z,7.57
2022-08-11T05:23:01.861Z,7.32
2022-08-11T05:24:35.029Z,7.62
2022-08-11T05:26:44.461Z,7.54
2022-08-11T05:27:28.586Z,7.56
2022-08-11T05:28:54.898Z,7.23
2022-08-11T05:30:25.940Z,6.95
2022-08-11T05:31:53.989Z,7.09
2022-08-11T05:33:33.564Z,7.21
2022-08-11T05:34:56.521Z,6.98
2022-08-11T05:37:30.156Z,7.58
2022-08-11T05:38:54.351Z,7.01
2022-08-11T05:40:31.908Z,6.71
2022-08-11T05:42:02.756Z,7.08
2022-08-11T05:43:29.262Z,6.85
2022-08-11T05:44:53.353Z,6.46
2022-08-11T05:46:18.901Z,6.41
2022-08-11T05:47:45.558Z,6.86
2022-08-11T05:49:09.888Z,6.62
2022-08-11T05:50:34.456Z,6.55
2022-08-11T05:52:05.701Z,6.22
2022-08-11T05:53:40.289Z,6.29
2022-08-11T05:55:06.293Z,6.50
2022-08-11T05:58:59.460Z,6.59
2022-08-11T06:00:09.024Z,6.18
2022-08-11T06:01:16.836Z,6.36
2022-08-11T06:02:21.254Z,6.77
2022-08-11T06:03:28.690Z,6.69
2022-08-11T06:04:34.363Z,6.09
2022-08-11T06:05:44.062Z,6.36
2022-08-11T06:07:01.547Z,6.89
2022-08-11T06:08:10.737Z,6.51
2022-08-11T06:09:18.396Z,6.69
2022-08-11T06:10:29.012Z,6.52
2022-08-11T06:11:43.765Z,6.10
2022-08-11T06:12:50.210Z,6.38
2022-08-11T06:13:58.204Z,6.24
2022-08-11T06:15:07.913Z,6.57
2022-08-11T06:16:16.537Z,6.70
2022-08-11T06:18:42.789Z,6.60
2022-08-11T06:19:49.048Z,6.49
2022-08-11T06:22:12.600Z,6.58
2022-08-11T06:23:19.537Z,5.93
2022-08-11T06:24:23.808Z,6.81
2022-08-11T06:25:36.214Z,6.22
2022-08-11T06:27:08.668Z,6.17
2022-08-11T06:27:51.955Z,6.20
2022-08-11T06:28:59.075Z,6.07
2022-08-11T06:30:07.469Z,6.29
2022-08-11T06:31:17.929Z,6.14
2022-08-11T06:32:28.702Z,5.78
2022-08-11T06:33:40.415Z,5.68
2022-08-11T06:35:05.694Z,5.68
2022-08-11T06:36:35.993Z,5.76
2022-08-11T06:38:02.245Z,5.42
2022-08-11T06:39:25.250Z,5.57
2022-08-11T06:41:15.896Z,5.53
2022-08-11T06:42:30.132Z,5.53
2022-08-11T06:43:55.474Z,5.63
2022-08-11T06:45:02.153Z,5.89
2022-08-11T06:46:09.643Z,5.42
2022-08-11T06:47:20.027Z,5.99
2022-08-11T06:48:24.300Z,5.63
2022-08-11T06:49:53.863Z,5.62
2022-08-11T06:51:21.663Z,5.94
2022-08-11T06:52:39.342Z,5.58
2022-08-11T06:54:04.776Z,5.53
2022-08-11T06:55:55.643Z,6.20
2022-08-11T06:56:29.008Z,5.71
2022-08-11T06:57:58.114Z,5.72
2022-08-11T06:59:25.452Z,5.78
2022-08-11T07:00:34.342Z,5.92
2022-08-11T07:02:03.119Z,6.19
2022-08-11T07:03:17.136Z,5.76
2022-08-11T07:04:44.387Z,6.07
2022-08-11T07:05:54.809Z,5.82
2022-08-11T07:07:41.279Z,6.18
2022-08-11T07:09:24.947Z,5.77
2022-08-11T07:11:00.328Z,5.57
2022-08-11T07:12:42.087Z,5.91
2022-08-11T07:14:11.094Z,5.20
2022-08-11T07:16:12.334Z,5.69
2022-08-11T07:16:43.774Z,5.75
2022-08-11T07:18:12.827Z,6.11
2022-08-11T07:19:40.109Z,5.80
2022-08-11T07:21:03.918Z,5.76
2022-08-11T07:22:25.908Z,5.83
2022-08-11T07:23:52.699Z,5.57
2022-08-11T07:25:33.204Z,5.69
2022-08-11T07:26:59.416Z,5.48
2022-08-11T07:28:47.233Z,4.61
2022-08-11T07:29:55.430Z,4.51
2022-08-11T07:31:05.965Z,4.96
2022-08-11T07:32:16.565Z,4.39
2022-08-11T07:34:38.816Z,4.26
2022-08-11T07:35:48.801Z,4.83
2022-08-11T07:36:58.495Z,4.56
2022-08-11T07:38:07.155Z,4.40
2022-08-11T07:39:19.475Z,4.71
2022-08-11T07:40:28.616Z,4.58
2022-08-11T07:41:34.716Z,4.91
2022-08-11T07:42:38.810Z,4.74
2022-08-11T07:43:51.174Z,4.91
2022-08-11T07:45:15.261Z,4.83
2022-08-11T07:46:40.327Z,4.63
2022-08-11T07:48:04.818Z,4.92
2022-08-11T07:49:29.523Z,4.94
2022-08-11T07:50:56.157Z,5.22
2022-08-11T07:52:21.587Z,5.11
2022-08-11T07:53:30.809Z,5.38
2022-08-11T07:54:47.334Z,5.65
2022-08-11T07:55:53.497Z,5.48
2022-08-11T07:57:07.330Z,5.29
2022-08-11T07:58:23.417Z,5.58
2022-08-11T07:59:57.594Z,5.92
2022-08-11T08:01:22.209Z,5.72
2022-08-11T08:02:43.702Z,5.76
2022-08-11T08:04:06.823Z,5.57
2022-08-11T08:05:30.462Z,5.64
2022-08-11T08:06:58.578Z,5.91
2022-08-11T08:08:20.492Z,5.88
2022-08-11T08:09:46.616Z,5.85
2022-08-11T08:11:08.383Z,6.23
2022-08-11T08:12:36.651Z,5.97
2022-08-11T08:13:58.144Z,6.43
2022-08-11T08:15:25.603Z,5.88
2022-08-11T08:16:53.860Z,6.33
2022-08-11T08:18:09.567Z,6.38
2022-08-11T08:19:08.287Z,6.20
2022-08-11T08:20:24.383Z,6.59
2022-08-11T08:21:29.471Z,6.10
2022-08-11T08:22:37.760Z,6.53
2022-08-11T08:23:47.445Z,6.32
2022-08-11T08:24:54.318Z,6.67
2022-08-11T08:25:58.373Z,6.02
2022-08-11T08:27:05.043Z,6.03
2022-08-11T08:28:15.606Z,6.66
2022-08-11T08:29:40.546Z,6.51
2022-08-11T08:30:50.384Z,6.37
2022-08-11T08:31:57.493Z,6.92
2022-08-11T08:33:04.674Z,6.58
2022-08-11T08:34:11.095Z,7.12
2022-08-11T08:35:16.355Z,6.74
2022-08-11T08:36:23.951Z,6.96
2022-08-11T08:37:46.398Z,6.47
2022-08-11T08:38:38.118Z,7.12
2022-08-11T08:39:43.495Z,6.67
2022-08-11T08:40:52.451Z,7.13
2022-08-11T08:42:06.870Z,6.38
2022-08-11T08:43:18.428Z,6.72
2022-08-11T08:44:38.506Z,6.60
2022-08-11T08:45:36.604Z,6.86
2022-08-11T08:46:44.940Z,6.82
2022-08-11T08:48:03.601Z,6.76
2022-08-11T08:49:12.896Z,6.07
2022-08-11T08:50:27.770Z,6.06
2022-08-11T08:52:02.559Z,5.88
2022-08-11T08:52:50.655Z,6.42
2022-08-11T08:55:04.924Z,6.23
2022-08-11T08:56:09.973Z,6.16
2022-08-11T08:57:16.717Z,6.26
2022-08-11T08:58:23.489Z,6.90
2022-08-11T08:59:44.967Z,6.27
2022-08-11T09:00:41.481Z,6.05
2022-08-11T09:02:00.441Z,6.66
2022-08-11T09:03:23.199Z,6.74
2022-08-11T09:04:20.376Z,6.86
2022-08-11T09:05:21.818Z,6.09
2022-08-11T09:06:26.477Z,6.37
2022-08-11T09:07:39.116Z,6.82
2022-08-11T09:08:42.430Z,6.35
2022-08-11T09:09:49.312Z,6.72
2022-08-11T09:11:13.767Z,6.23
2022-08-11T09:12:36.019Z,6.67
2022-08-11T09:13:28.184Z,6.71
2022-08-11T09:15:04.682Z,6.46
2022-08-11T09:16:11.712Z,6.27
2022-08-11T09:17:15.626Z,6.31
2022-08-11T09:18:19.378Z,6.40
2022-08-11T09:19:26.819Z,6.62
2022-08-11T09:20:33.766Z,6.48
2022-08-11T09:21:48.926Z,6.40
2022-08-11T09:24:40.013Z,6.16
2022-08-11T09:26:04.453Z,6.39
2022-08-11T09:27:08.433Z,6.21
2022-08-11T09:28:15.901Z,6.40
2022-08-11T09:29:23.266Z,6.12
2022-08-11T09:30:33.557Z,5.73
2022-08-11T09:31:40.274Z,6.51
2022-08-11T09:32:45.006Z,6.31
2022-08-11T09:33:50.211Z,6.61
2022-08-11T09:34:54.996Z,6.45
2022-08-11T09:36:02.750Z,6.22
2022-08-11T09:37:54.419Z,6.48
2022-08-11T09:38:53.196Z,6.65
2022-08-11T10:04:47.530Z,6.82
2022-08-11T10:06:22.240Z,6.68
2022-08-11T10:07:28.085Z,6.50
2022-08-11T10:08:34.523Z,6.92
2022-08-11T10:09:54.579Z,7.28
2022-08-11T10:10:58.912Z,6.53
2022-08-11T10:12:05.459Z,7.14
2022-08-11T10:14:31.647Z,6.39
2022-08-11T10:14:50.539Z,6.84
2022-08-11T10:16:03.600Z,6.80
2022-08-11T10:17:09.214Z,7.18
2022-08-11T10:18:36.406Z,7.27
2022-08-11T10:19:44.554Z,6.62
2022-08-11T10:20:54.058Z,6.93
2022-08-11T10:22:17.940Z,7.24
2022-08-11T10:24:01.096Z,7.02
2022-08-11T10:25:08.097Z,6.71
2022-08-11T10:26:32.280Z,6.58
2022-08-11T10:28:17.738Z,6.85
2022-08-11T10:29:09.662Z,7.37
2022-08-11T10:30:10.105Z,6.65
2022-08-11T10:31:37.613Z,7.04
2022-08-11T10:33:00.253Z,6.90
2022-08-11T10:34:09.240Z,6.89
2022-08-11T10:35:16.538Z,7.08
2022-08-11T10:38:08.003Z,7.02
2022-08-11T10:38:37.509Z,6.94
2022-08-11T10:39:44.208Z,7.13
2022-08-11T10:40:51.355Z,6.73
2022-08-11T10:42:26.125Z,6.95
2022-08-11T10:44:01.192Z,6.87
2022-08-11T10:44:27.989Z,6.63
2022-08-11T10:45:54.426Z,6.36
2022-08-11T10:47:18.206Z,7.26
2022-08-11T10:48:26.065Z,6.81
2022-08-11T10:49:31.148Z,7.01
2022-08-11T10:50:54.070Z,7.03
2022-08-11T10:52:17.105Z,6.86
2022-08-11T10:53:40.061Z,7.07
2022-08-11T10:55:04.348Z,7.12
2022-08-11T10:56:28.117Z,6.66
2022-08-11T10:58:04.834Z,6.97
2022-08-11T10:59:03.826Z,6.64
2022-08-11T11:00:14.779Z,7.27
2022-08-11T11:01:25.941Z,7.07
2022-08-11T11:02:29.388Z,7.18
2022-08-11T11:03:37.590Z,7.03
2022-08-11T11:06:32.933Z,6.71
2022-08-11T11:07:58.150Z,6.96
2022-08-11T11:09:12.347Z,7.03
2022-08-11T11:10:17.845Z,7.21
2022-08-11T11:11:27.173Z,7.19
2022-08-11T11:13:00.687Z,7.48
2022-08-11T11:14:24.581Z,7.05
2022-08-11T11:15:51.968Z,7.17
2022-08-11T11:17:16.958Z,6.92
2022-08-11T11:18:27.517Z,7.06
2022-08-11T11:19:39.898Z,6.56
2022-08-11T11:21:02.635Z,6.67
2022-08-11T11:22:26.681Z,6.77
2022-08-11T11:23:48.674Z,6.63
2022-08-11T11:25:08.601Z,6.99
2022-08-11T11:26:28.557Z,6.33
2022-08-11T11:28:01.465Z,6.93
2022-08-11T11:29:41.960Z,6.67
2022-08-11T11:32:16.508Z,7.12
2022-08-11T11:33:24.687Z,7.17
2022-08-11T11:34:48.562Z,7.30
2022-08-11T11:36:12.244Z,7.09
2022-08-11T11:37:19.162Z,6.95
2022-08-11T11:38:25.003Z,7.03
2022-08-11T11:39:31.723Z,7.12
2022-08-11T11:40:38.211Z,7.08
2022-08-11T11:41:43.409Z,7.12
2022-08-11T11:42:48.801Z,7.67
2022-08-11T11:43:56.800Z,6.83
2022-08-11T11:45:03.318Z,7.01
2022-08-11T11:46:11.185Z,7.14
2022-08-11T11:47:21.892Z,6.62
2022-08-11T11:49:36.635Z,6.64
2022-08-11T11:50:41.340Z,7.07
2022-08-11T11:51:50.282Z,6.83
2022-08-11T11:52:56.952Z,6.94
2022-08-11T11:54:03.919Z,7.03
2022-08-11T11:55:11.513Z,6.98
2022-08-11T11:56:20.323Z,7.11
2022-08-11T11:57:59.025Z,7.33
2022-08-11T11:59:14.656Z,6.82
2022-08-11T12:00:43.300Z,7.15
2022-08-11T12:01:50.457Z,7.14
2022-08-11T12:02:51.952Z,6.87
2022-08-11T12:04:01.632Z,6.76
2022-08-11T12:05:08.697Z,7.09
2022-08-11T12:06:18.711Z,7.05
2022-08-11T12:07:42.581Z,6.87
2022-08-11T12:08:50.325Z,7.01
2022-08-11T12:09:54.825Z,7.12
2022-08-11T12:11:21.799Z,6.89
2022-08-11T12:12:47.745Z,7.03
2022-08-11T12:13:53.985Z,6.66
2022-08-11T12:14:57.552Z,6.36
2022-08-11T12:16:33.912Z,6.65
2022-08-11T12:17:13.482Z,6.89
2022-08-11T12:18:18.133Z,6.22
2022-08-11T12:19:25.572Z,6.24
2022-08-11T12:20:34.278Z,7.04
2022-08-11T12:21:42.823Z,6.80
2022-08-11T12:23:10.405Z,6.68
2022-08-11T12:24:32.018Z,6.44
2022-08-11T12:27:25.405Z,6.47
2022-08-11T12:28:31.873Z,6.37
2022-08-11T12:29:41.425Z,6.82
2022-08-11T12:30:47.505Z,6.60
2022-08-11T12:31:55.690Z,6.01
2022-08-11T12:32:58.816Z,6.47
2022-08-11T12:34:09.841Z,6.95
2022-08-11T12:35:16.576Z,6.83
2022-08-11T12:36:22.520Z,6.81
2022-08-11T12:38:51.329Z,6.67
2022-08-11T12:41:11.282Z,7.26
2022-08-11T12:41:42.561Z,6.77
2022-08-11T12:43:21.246Z,6.31
2022-08-11T12:44:25.363Z,6.35
2022-08-11T12:45:31.895Z,6.47
2022-08-11T12:46:39.900Z,6.90
2022-08-11T12:48:59.191Z,6.89
2022-08-11T12:49:42.002Z,6.38
2022-08-11T12:51:08.696Z,6.64
2022-08-11T12:52:16.057Z,6.13
2022-08-11T12:53:26.499Z,6.24
2022-08-11T12:54:53.362Z,6.92
2022-08-11T12:56:18.286Z,6.78
2022-08-11T12:57:59.806Z,6.86
2022-08-11T12:59:22.214Z,6.41
2022-08-11T13:00:46.320Z,6.80
2022-08-11T13:02:10.555Z,6.67
2022-08-11T13:03:39.989Z,7.29
2022-08-11T13:04:59.348Z,7.57
2022-08-11T13:06:06.676Z,7.24
2022-08-11T13:07:12.107Z,7.19
2022-08-11T13:08:17.381Z,7.42
2022-08-11T13:09:27.906Z,6.78
2022-08-11T13:10:55.224Z,7.49
2022-08-11T13:12:18.447Z,7.11
2022-08-11T13:13:52.776Z,7.41
2022-08-11T13:14:28.507Z,6.90
2022-08-11T13:15:32.618Z,7.03
2022-08-11T13:16:42.906Z,7.52
2022-08-11T13:17:50.668Z,7.14
2022-08-11T13:18:56.368Z,7.15
2022-08-11T13:20:01.493Z,7.45
2022-08-11T13:21:06.623Z,7.48
2022-08-11T13:22:12.517Z,7.09
2022-08-11T13:23:17.645Z,7.38
2022-08-11T13:24:25.936Z,7.38
2022-08-11T13:25:32.515Z,7.51
2022-08-11T13:26:48.529Z,7.58
2022-08-11T13:29:00.225Z,7.83
2022-08-11T13:30:19.358Z,7.67
2022-08-11T13:32:29.281Z,7.72
2022-08-11T13:33:36.819Z,7.86
2022-08-11T13:34:43.650Z,8.01
2022-08-11T13:35:49.981Z,7.64
2022-08-11T13:36:57.520Z,8.27
2022-08-11T13:38:19.781Z,8.16
2022-08-11T13:39:15.738Z,8.69
2022-08-11T13:40:33.298Z,8.18
2022-08-11T13:42:54.444Z,8.46
2022-08-11T13:43:59.289Z,9.14
2022-08-11T13:45:08.665Z,8.81
2022-08-11T13:46:23.557Z,8.83
2022-08-11T13:47:30.461Z,8.87
2022-08-11T13:48:34.640Z,8.74
2022-08-11T13:49:41.340Z,8.74
2022-08-11T13:51:05.674Z,8.64
2022-08-11T13:52:14.752Z,8.90
2022-08-11T13:53:23.545Z,8.92
2022-08-11T13:54:29.940Z,9.74
2022-08-11T13:55:52.317Z,10.14
2022-08-11T13:56:47.781Z,9.57
2022-08-11T13:58:08.584Z,9.09
2022-08-11T13:59:03.771Z,9.18
2022-08-11T14:00:19.063Z,9.44
2022-08-11T14:02:20.565Z,9.46
2022-08-11T14:02:30.758Z,9.53
2022-08-11T14:04:29.847Z,9.33
2022-08-11T14:04:45.262Z,9.41
2022-08-11T14:05:52.349Z,9.68
2022-08-11T14:06:59.951Z,9.33
2022-08-11T14:09:23.557Z,9.52
2022-08-11T14:10:34.577Z,9.80
2022-08-11T14:12:21.847Z,9.77
2022-08-11T14:13:42.690Z,9.84
2022-08-11T14:14:42.289Z,10.00
2022-08-11T14:15:52.301Z,9.16
2022-08-11T14:16:58.375Z,9.92
2022-08-11T14:18:05.637Z,9.96
2022-08-11T14:19:14.089Z,10.39
2022-08-11T14:20:39.393Z,8.91
2022-08-11T14:21:54.236Z,10.12
2022-08-11T14:22:57.850Z,9.46
2022-08-11T14:24:06.070Z,9.43
2022-08-11T14:25:11.813Z,9.37
2022-08-11T14:26:25.567Z,10.03
2022-08-11T14:28:32.556Z,8.84
2022-08-11T14:28:43.991Z,9.63
2022-08-11T14:29:48.858Z,9.25
2022-08-11T14:31:01.468Z,9.83
2022-08-11T14:32:07.147Z,9.25
2022-08-11T14:33:16.989Z,9.96
2022-08-11T14:34:20.655Z,9.32
2022-08-11T14:35:27.554Z,9.19
2022-08-11T14:36:41.613Z,9.55
2022-08-11T14:37:46.493Z,9.59
2022-08-11T14:38:55.025Z,9.41
2022-08-11T14:40:03.989Z,9.65
2022-08-11T14:41:28.234Z,9.82
2022-08-11T14:42:48.979Z,9.54
2022-08-11T14:44:14.782Z,9.71
2022-08-11T14:45:58.339Z,9.34
2022-08-11T14:47:24.549Z,9.25
2022-08-11T14:48:12.093Z,9.25
2022-08-11T14:49:16.670Z,9.32
2022-08-11T14:50:23.581Z,9.00
2022-08-11T14:51:31.655Z,9.04
2022-08-11T14:52:37.795Z,9.33
2022-08-11T14:53:58.506Z,9.17
2022-08-11T14:55:07.672Z,9.06
2022-08-11T14:56:33.641Z,9.01
2022-08-11T14:58:04.690Z,9.29
2022-08-11T14:58:44.727Z,8.84
2022-08-11T14:59:52.411Z,8.98
2022-08-11T15:01:01.383Z,8.93
2022-08-11T15:03:37.289Z,8.89
2022-08-11T15:04:41.421Z,8.89
2022-08-11T15:05:57.679Z,9.03
2022-08-11T15:06:59.851Z,8.94
2022-08-11T15:08:04.595Z,9.38
2022-08-11T15:09:09.454Z,8.94
2022-08-11T15:10:17.487Z,8.78
2022-08-11T15:11:46.211Z,8.91
2022-08-11T15:12:50.318Z,8.55
2022-08-11T15:13:54.750Z,8.84
2022-08-11T15:15:20.121Z,9.11
2022-08-11T15:16:46.941Z,8.56
2022-08-11T15:17:54.995Z,8.69
2022-08-11T15:18:59.364Z,9.40
2022-08-11T15:20:35.148Z,8.54
2022-08-11T15:21:57.367Z,9.42
2022-08-11T15:23:18.943Z,8.78
2022-08-11T15:24:27.950Z,9.37
2022-08-11T15:25:35.066Z,8.74
2022-08-11T15:27:01.538Z,9.27
2022-08-11T15:28:25.928Z,9.45
2022-08-11T15:29:51.055Z,8.77
2022-08-11T15:31:17.364Z,8.66
2022-08-11T15:32:25.317Z,8.91
2022-08-11T15:33:50.263Z,9.04
2022-08-11T15:35:21.387Z,8.74
2022-08-11T15:36:46.411Z,9.51
2022-08-11T15:37:53.982Z,8.64
2022-08-11T15:39:03.596Z,9.03
2022-08-11T15:40:45.703Z,8.79
2022-08-11T15:42:29.050Z,9.17
2022-08-11T15:44:04.636Z,9.08
2022-08-11T15:45:30.593Z,8.62
2022-08-11T15:46:39.535Z,9.49
2022-08-11T15:47:57.031Z,8.91
2022-08-11T15:49:06.222Z,8.56
2022-08-11T15:50:14.217Z,9.25
2022-08-11T15:51:31.363Z,9.07
2022-08-11T15:52:42.603Z,8.97
2022-08-11T15:55:03.769Z,8.69
2022-08-11T15:56:09.867Z,9.07
2022-08-11T15:57:39.861Z,8.32
2022-08-11T15:59:41.234Z,9.31
2022-08-11T16:00:32.701Z,8.59
2022-08-11T16:01:58.282Z,8.68
2022-08-11T16:03:23.647Z,8.64
2022-08-11T16:04:32.694Z,8.48
2022-08-11T16:05:46.728Z,8.30
2022-08-11T16:06:58.215Z,8.58
2022-08-11T16:08:03.636Z,8.72
2022-08-11T16:09:18.416Z,8.70
2022-08-11T16:10:24.969Z,8.81
2022-08-11T16:11:29.473Z,8.72
2022-08-11T16:12:45.194Z,8.45
2022-08-11T16:14:10.773Z,9.11
2022-08-11T16:15:34.473Z,8.84
2022-08-11T16:16:39.758Z,8.84
2022-08-11T16:17:51.983Z,8.72
2022-08-11T16:18:59.475Z,8.53
2022-08-11T16:20:09.626Z,9.02
2022-08-11T16:22:40.241Z,8.43
2022-08-11T16:23:48.510Z,8.41
2022-08-11T16:27:06.891Z,8.69
2022-08-11T16:27:10.835Z,8.29
2022-08-11T16:27:14.013Z,8.32
2022-08-11T16:28:21.210Z,8.32
2022-08-11T16:29:26.291Z,8.63
2022-08-11T16:30:35.130Z,8.52
2022-08-11T16:31:41.281Z,8.07
2022-08-11T16:32:51.059Z,8.57
2022-08-11T16:33:56.439Z,8.44
2022-08-11T16:35:21.848Z,8.31
2022-08-11T16:36:48.597Z,8.21
2022-08-11T16:38:13.699Z,8.74
2022-08-11T16:39:19.832Z,8.60
2022-08-11T16:40:28.142Z,8.18
2022-08-11T16:41:53.560Z,8.43
2022-08-11T16:43:17.439Z,9.26
2022-08-11T16:44:41.751Z,8.24
2022-08-11T16:46:07.653Z,8.99
2022-08-11T16:47:17.597Z,9.12
2022-08-11T16:48:37.465Z,8.49
2022-08-11T16:49:40.557Z,8.34
2022-08-11T16:50:44.760Z,9.08
2022-08-11T16:51:49.670Z,8.82
2022-08-11T16:52:53.369Z,8.70
2022-08-11T16:54:04.387Z,8.58
2022-08-11T16:55:06.942Z,7.96
2022-08-11T16:56:15.760Z,9.00
2022-08-11T16:57:42.862Z,8.78
2022-08-11T16:59:09.911Z,9.31
2022-08-11T17:00:17.477Z,8.65
2022-08-11T17:01:22.770Z,9.06
2022-08-11T17:02:49.736Z,9.07
2022-08-11T17:04:16.534Z,8.44
2022-08-11T17:05:53.839Z,8.69
2022-08-11T17:07:23.743Z,9.02
2022-08-11T17:08:40.009Z,8.89
2022-08-11T17:10:31.825Z,9.24
2022-08-11T17:11:30.308Z,8.74
2022-08-11T17:12:56.584Z,9.39
2022-08-11T17:14:06.514Z,8.94
2022-08-11T17:15:17.803Z,9.39
2022-08-11T17:16:24.225Z,8.70
2022-08-11T17:17:40.168Z,8.84
2022-08-11T17:20:39.930Z,9.07
2022-08-11T17:21:23.508Z,9.15
2022-08-11T17:22:47.451Z,8.82
2022-08-11T17:23:55.472Z,8.86
2022-08-11T17:25:01.053Z,9.59
2022-08-11T17:26:05.843Z,9.23
2022-08-11T17:27:15.627Z,9.12
2022-08-11T17:28:21.463Z,8.99
2022-08-11T17:29:53.746Z,8.57
2022-08-11T17:31:20.011Z,8.76
2022-08-11T17:32:57.082Z,8.82
2022-08-11T17:34:10.189Z,8.78
2022-08-11T17:35:32.788Z,9.23
2022-08-11T17:36:44.564Z,8.90
2022-08-11T17:37:46.593Z,8.87
2022-08-11T17:38:52.695Z,8.98
2022-08-11T17:39:58.666Z,8.93
2022-08-11T17:41:27.804Z,8.67
2022-08-11T17:42:51.986Z,8.64
2022-08-11T17:44:16.593Z,9.05
2022-08-11T17:45:41.961Z,8.42
2022-08-11T17:48:26.757Z,8.23
2022-08-11T17:49:34.692Z,8.59
2022-08-11T17:50:42.459Z,8.34
2022-08-11T17:52:07.625Z,8.93
2022-08-11T17:53:33.690Z,9.03
2022-08-11T17:54:59.895Z,9.26
2022-08-11T17:56:25.458Z,8.87
2022-08-11T17:57:50.944Z,9.12
2022-08-11T17:59:18.511Z,8.57
2022-08-11T18:00:23.269Z,9.01
2022-08-11T18:01:29.056Z,7.96
2022-08-11T18:02:54.918Z,8.46
2022-08-11T18:04:00.484Z,8.12
2022-08-11T18:05:13.063Z,8.79
2022-08-11T18:06:14.805Z,8.86
2022-08-11T18:07:39.851Z,8.95
2022-08-11T18:09:06.178Z,8.60
2022-08-11T18:10:39.465Z,8.96
2022-08-11T18:12:10.545Z,8.59
2022-08-11T18:13:28.931Z,8.82
2022-08-11T18:14:54.059Z,8.37
2022-08-11T18:16:16.885Z,8.91
2022-08-11T18:17:40.122Z,9.07
2022-08-11T18:19:05.259Z,8.87
2022-08-11T18:20:30.559Z,8.82
2022-08-11T18:22:11.005Z,9.24
2022-08-11T18:23:46.124Z,9.11
2022-08-11T18:24:58.735Z,8.84
2022-08-11T18:26:24.429Z,8.49
2022-08-11T18:27:53.685Z,8.62
2022-08-11T18:29:17.012Z,8.42
2022-08-11T18:30:43.488Z,8.89
2022-08-11T18:32:09.508Z,9.00
2022-08-11T18:35:00.545Z,8.57
2022-08-11T18:36:22.604Z,8.97
2022-08-11T18:37:50.205Z,8.18
2022-08-11T18:39:19.246Z,8.60
2022-08-11T18:40:46.927Z,8.63
2022-08-11T18:42:12.561Z,9.15